Weather at Brockville - Thousand Islands Regional Tackaberry Airport

Public forecast

Using degrees Celsius for public forecast. Weather courtesy of forecast.io.

Closest aviation weather report (METAR) to Brockville - Thousand Islands Regional Tackaberry Airport

Closest report is Ogdensburg International Airport, 12.4 nm (23.0 km) ENE.

2024/07/14 16:55 (retrieved 29 minutes ago)

KOGS 141655Z AUTO 21011KT 10SM CLR 29/19 A2998 RMK AO2

Closest aviation forecast (TAF) to Brockville - Thousand Islands Regional Tackaberry Airport

Closest forecast is Watertown International Airport, 40.6 nm (75.2 km) SSW.

2024/07/14 12:22 (retrieved 5 hours ago)

TAF KART 141120Z 1412/1512 19004KT P6SM SKC FM141400 23006KT P6SM FEW250 FM141700 24009KT P6SM SCT250 FM142200 21006KT P6SM BKN250 FM150100 19004KT P6SM VCSH BKN120